Time;durP1;ratioP1;P1;durP2;ratioP2;P2;SDS_P1;SDS_P2;PMS_P1;PMS_P2;Temp;Humidity;BMP_temperature;BMP_pressure;BME280_temperature;BME280_humidity;BME280_pressure;Samples;Min_cycle;Max_cycle;Signal;HPM_P1;HPM_P2
2023/02/10 10:04:19;;;;;;;35.10;18.35;;;;;;;;;;4963741;23;20099;-91
2023/02/10 10:06:46;;;;;;;41.25;19.40;;;;;;;;;;4922728;29;20035;-92
2023/02/10 10:12:31;;;;;;;29.48;16.48;;;;;;;;;;4924143;29;20050;-90
2023/02/10 10:14:57;;;;;;;37.38;20.75;;;;;;;;;;4923346;29;20032;-91
2023/02/10 10:17:23;;;;;;;39.17;20.17;;;;;;;;;;4923370;29;20024;-92
2023/02/10 10:20:26;;;;;;;31.10;16.90;;;;;;;;;;4923108;29;20036;-91
2023/02/10 10:26:04;;;;;;;29.40;15.95;;;;;;;;;;4846754;29;20086;-92
2023/02/10 10:28:39;;;;;;;31.35;17.15;;;;;;;;;;4826943;29;20045;-92
2023/02/10 10:31:14;;;;;;;36.80;18.75;;;;;;;;;;4845442;29;20073;-93
2023/02/10 10:33:43;;;;;;;31.52;16.73;;;;;;;;;;4845625;29;20069;-90
2023/02/10 10:36:14;;;;;;;35.50;16.83;;;;;;;;;;4844107;29;20117;-93
2023/02/10 10:38:43;;;;;;;33.38;19.00;;;;;;;;;;4846839;29;20037;-90
2023/02/10 10:41:11;;;;;;;29.35;17.08;;;;;;;;;;4846673;29;20450;-89
2023/02/10 10:43:47;;;;;;;25.48;14.82;;;;;;;;;;4846607;29;20050;-90
2023/02/10 10:46:19;;;;;;;25.25;15.10;;;;;;;;;;4830865;29;20026;-92
2023/02/10 10:48:46;;;;;;;25.80;15.70;;;;;;;;;;4846752;29;20037;-90
2023/02/10 10:51:13;;;;;;;38.20;18.42;;;;;;;;;;4846708;29;20067;-90
2023/02/10 10:59:54;;;;;;;26.05;15.82;;;;;;;;;;4922605;29;19970;-90
2023/02/10 11:02:24;;;;;;;27.60;15.57;;;;;;;;;;4846036;29;20144;-91
2023/02/10 11:05:01;;;;;;;29.55;15.13;;;;;;;;;;4845651;29;20046;-89
2023/02/10 11:07:29;;;;;;;24.70;14.57;;;;;;;;;;4846493;29;20038;-92
2023/02/10 11:09:55;;;;;;;31.08;16.15;;;;;;;;;;4846257;29;20030;-93
2023/02/10 11:12:25;;;;;;;32.70;17.63;;;;;;;;;;4846010;29;20424;-89
2023/02/10 11:14:53;;;;;;;33.65;18.60;;;;;;;;;;4845915;29;20048;-93
2023/02/10 11:17:23;;;;;;;37.08;18.98;;;;;;;;;;4845751;29;20053;-91
2023/02/10 11:19:57;;;;;;;29.42;17.02;;;;;;;;;;4830260;29;20128;-91
2023/02/10 11:22:23;;;;;;;38.22;21.63;;;;;;;;;;4845125;29;20453;-92
2023/02/10 11:27:52;;;;;;;;;;;;;;;;;;4846119;29;20029;-92
2023/02/10 11:30:26;;;;;;;27.38;14.60;;;;;;;;;;4845501;29;19909;-91
2023/02/10 11:32:53;;;;;;;32.13;15.38;;;;;;;;;;4845715;29;20430;-85
2023/02/10 11:35:19;;;;;;;33.60;17.67;;;;;;;;;;4845656;29;20042;-93
2023/02/10 11:37:50;;;;;;;30.63;16.35;;;;;;;;;;4847151;29;20030;-93
2023/02/10 11:40:40;;;;;;;26.38;15.88;;;;;;;;;;4916410;29;20080;-88
2023/02/10 11:43:09;;;;;;;26.20;15.85;;;;;;;;;;4921152;29;20103;-86
2023/02/10 11:45:35;;;;;;;27.30;14.65;;;;;;;;;;4920872;29;20024;-85
2023/02/10 11:48:02;;;;;;;27.25;15.40;;;;;;;;;;4919782;29;20099;-87
2023/02/10 11:50:31;;;;;;;42.20;22.40;;;;;;;;;;4920807;29;20042;-87
2023/02/10 11:52:58;;;;;;;25.00;14.07;;;;;;;;;;4921193;29;20044;-88
2023/02/10 11:55:46;;;;;;;29.65;15.50;;;;;;;;;;4921281;29;20415;-87
2023/02/10 11:58:59;;;;;;;28.23;15.95;;;;;;;;;;4921833;29;20037;-88
2023/02/10 12:01:28;;;;;;;26.20;13.75;;;;;;;;;;4921167;29;20056;-88
2023/02/10 12:04:01;;;;;;;40.88;23.45;;;;;;;;;;4920985;29;20036;-86
2023/02/10 12:06:42;;;;;;;46.50;24.38;;;;;;;;;;4920231;29;20040;-86
2023/02/10 12:09:27;;;;;;;87.15;39.78;;;;;;;;;;4918703;29;20044;-85
2023/02/10 12:11:58;;;;;;;40.72;21.25;;;;;;;;;;4919573;29;20392;-87
2023/02/10 12:14:27;;;;;;;24.77;14.63;;;;;;;;;;4920533;29;20028;-86
2023/02/10 12:17:22;;;;;;;22.92;13.07;;;;;;;;;;4920037;29;20067;-86
2023/02/10 12:19:57;;;;;;;25.08;13.80;;;;;;;;;;4842465;29;20050;-91
2023/02/10 12:22:39;;;;;;;25.33;14.15;;;;;;;;;;4845626;29;20334;-91
2023/02/10 12:25:09;;;;;;;28.02;15.38;;;;;;;;;;4904600;23;20048;-90
2023/02/10 12:27:42;;;;;;;38.90;20.60;;;;;;;;;;4905170;29;20115;-93
2023/02/10 12:30:26;;;;;;;31.77;15.52;;;;;;;;;;4901168;29;20081;-93
2023/02/10 12:33:11;;;;;;;33.00;14.20;;;;;;;;;;4901263;29;20041;-93
2023/02/10 12:36:03;;;;;;;30.42;13.77;;;;;;;;;;4900998;29;20043;-94
2023/02/10 12:38:59;;;;;;;23.90;13.60;;;;;;;;;;4901401;29;20032;-93
2023/02/10 12:41:45;;;;;;;26.48;13.50;;;;;;;;;;4834256;29;20133;-92
2023/02/10 12:44:23;;;;;;;26.52;15.93;;;;;;;;;;4843581;29;20038;-93
2023/02/10 12:47:04;;;;;;;27.90;15.70;;;;;;;;;;4829392;29;20050;-93
2023/02/10 12:49:36;;;;;;;25.10;14.15;;;;;;;;;;4844520;29;20049;-93
2023/02/10 12:52:06;;;;;;;34.45;19.00;;;;;;;;;;4844288;29;20097;-92
2023/02/10 12:54:54;;;;;;;38.58;21.13;;;;;;;;;;4845016;29;20053;-93
2023/02/10 12:57:22;;;;;;;30.63;14.82;;;;;;;;;;4844773;29;20034;-93
2023/02/10 12:59:57;;;;;;;73.43;34.85;;;;;;;;;;4844712;29;20082;-93
2023/02/10 13:02:42;;;;;;;29.90;17.67;;;;;;;;;;4844536;29;20118;-93
2023/02/10 13:05:10;;;;;;;23.83;14.00;;;;;;;;;;4829839;29;20065;-93
2023/02/10 13:07:41;;;;;;;25.35;15.07;;;;;;;;;;4845185;29;20357;-93
2023/02/10 13:10:07;;;;;;;28.40;15.48;;;;;;;;;;4844066;29;20118;-93
2023/02/10 13:12:36;;;;;;;33.97;19.83;;;;;;;;;;4844578;29;20334;-94
2023/02/10 13:15:06;;;;;;;31.15;19.20;;;;;;;;;;4815034;29;20482;-94
2023/02/10 13:17:43;;;;;;;27.75;15.90;;;;;;;;;;4864177;29;20052;-93
2023/02/10 13:20:28;;;;;;;22.33;13.57;;;;;;;;;;4901462;29;20044;-89
2023/02/10 13:23:13;;;;;;;30.33;17.25;;;;;;;;;;4900067;29;20424;-92
2023/02/10 13:25:57;;;;;;;42.13;22.20;;;;;;;;;;4875773;29;20072;-92
2023/02/10 13:28:33;;;;;;;28.23;16.33;;;;;;;;;;4897586;29;20069;-92
2023/02/10 13:31:00;;;;;;;25.80;14.75;;;;;;;;;;4903012;29;20029;-92
2023/02/10 13:33:30;;;;;;;31.75;16.33;;;;;;;;;;4901014;29;20031;-92
2023/02/10 13:35:56;;;;;;;31.65;17.73;;;;;;;;;;4901798;29;20028;-93
2023/02/10 13:38:25;;;;;;;26.20;15.43;;;;;;;;;;4903526;29;20025;-93
2023/02/10 13:43:56;;;;;;;76.38;32.85;;;;;;;;;;4905175;29;20097;-93
2023/02/10 13:46:23;;;;;;;34.80;18.50;;;;;;;;;;4900785;29;20416;-92
2023/02/10 13:48:57;;;;;;;34.25;17.88;;;;;;;;;;4886002;29;20036;-92
2023/02/10 13:51:37;;;;;;;28.58;15.50;;;;;;;;;;4885008;29;20036;-92
2023/02/10 13:54:04;;;;;;;27.35;15.07;;;;;;;;;;4886295;29;20033;-93
2023/02/10 13:56:31;;;;;;;28.83;15.40;;;;;;;;;;4896765;29;20044;-93
2023/02/10 13:58:57;;;;;;;29.98;15.68;;;;;;;;;;4904284;29;20059;-91
2023/02/10 14:01:38;;;;;;;27.20;14.95;;;;;;;;;;4904411;29;20319;-92
2023/02/10 14:04:24;;;;;;;25.55;14.90;;;;;;;;;;4904741;29;20315;-92
2023/02/10 14:06:51;;;;;;;33.10;14.82;;;;;;;;;;4847234;29;20477;-93
2023/02/10 14:09:20;;;;;;;24.98;13.70;;;;;;;;;;4832357;29;20063;-94
2023/02/10 14:11:51;;;;;;;28.80;16.85;;;;;;;;;;4847072;29;20117;-89
2023/02/10 14:14:37;;;;;;;47.33;26.75;;;;;;;;;;4847099;29;20038;-91
2023/02/10 14:17:07;;;;;;;40.50;23.63;;;;;;;;;;4847093;29;20144;-90
2023/02/10 14:19:35;;;;;;;41.83;24.92;;;;;;;;;;4846764;29;20190;-92
2023/02/10 14:22:02;;;;;;;31.63;17.40;;;;;;;;;;4846650;29;20038;-93
2023/02/10 14:24:30;;;;;;;26.92;16.23;;;;;;;;;;4847130;29;20073;-93
2023/02/10 14:26:57;;;;;;;24.83;15.45;;;;;;;;;;4847266;29;20095;-95
2023/02/10 14:29:23;;;;;;;27.08;15.80;;;;;;;;;;4848469;29;20038;-91
2023/02/10 14:31:55;;;;;;;22.45;14.65;;;;;;;;;;4830610;29;20042;-91
2023/02/10 14:34:26;;;;;;;29.27;16.42;;;;;;;;;;4823955;29;20058;-95
2023/02/10 14:36:54;;;;;;;29.38;17.17;;;;;;;;;;4893108;23;20071;-95
2023/02/10 14:39:40;;;;;;;29.73;16.95;;;;;;;;;;4907504;29;20080;-93
2023/02/10 14:42:06;;;;;;;31.58;17.40;;;;;;;;;;4912500;29;20029;-95
2023/02/10 14:44:39;;;;;;;29.33;17.98;;;;;;;;;;4920033;29;20422;-95
2023/02/10 14:47:06;;;;;;;28.85;17.15;;;;;;;;;;4912734;29;20032;-95
2023/02/10 14:49:35;;;;;;;30.27;17.80;;;;;;;;;;4922672;29;20028;-91
2023/02/10 14:52:02;;;;;;;35.72;19.58;;;;;;;;;;4923003;29;20042;-95
2023/02/10 14:54:28;;;;;;;39.55;21.73;;;;;;;;;;4903849;29;20404;-94
2023/02/10 14:56:55;;;;;;;37.40;21.00;;;;;;;;;;4918330;29;20025;-93
2023/02/10 14:59:27;;;;;;;41.60;22.23;;;;;;;;;;4921470;29;20461;-90
2023/02/10 15:01:54;;;;;;;39.72;20.15;;;;;;;;;;4922376;29;20088;-93
2023/02/10 15:04:24;;;;;;;37.30;21.02;;;;;;;;;;4921425;29;20050;-93
2023/02/10 15:06:52;;;;;;;63.15;30.83;;;;;;;;;;4908100;29;20036;-95
2023/02/10 15:09:19;;;;;;;60.63;30.95;;;;;;;;;;4915291;29;20067;-94
2023/02/10 15:14:46;;;;;;;54.25;26.40;;;;;;;;;;4922406;29;20068;-95
2023/02/10 15:17:15;;;;;;;61.53;31.98;;;;;;;;;;4922645;29;20020;-92
2023/02/10 15:19:52;;;;;;;66.13;34.10;;;;;;;;;;4920635;29;20040;-94
2023/02/10 15:22:35;;;;;;;60.10;30.60;;;;;;;;;;4916878;29;20053;-94
2023/02/10 15:28:10;;;;;;;108.32;53.03;;;;;;;;;;4922055;29;20075;-95
2023/02/10 15:30:36;;;;;;;;;;;;;;;;;;4909254;29;20443;-94
2023/02/10 15:33:03;;;;;;;76.65;37.90;;;;;;;;;;4919891;29;19911;-93
2023/02/10 15:35:29;;;;;;;68.03;36.25;;;;;;;;;;4912645;29;20029;-94
2023/02/10 15:37:57;;;;;;;73.45;35.88;;;;;;;;;;4902892;29;20131;-94
2023/02/10 15:40:27;;;;;;;75.53;37.65;;;;;;;;;;4902247;29;20381;-94
2023/02/10 15:42:58;;;;;;;73.20;35.90;;;;;;;;;;4913832;29;20073;-95
2023/02/10 15:45:25;;;;;;;67.32;36.08;;;;;;;;;;4901824;29;20388;-94
2023/02/10 15:47:59;;;;;;;66.82;35.78;;;;;;;;;;4907893;29;20411;-93
2023/02/10 15:50:25;;;;;;;61.78;31.08;;;;;;;;;;4907387;29;20040;-92
2023/02/10 15:52:51;;;;;;;107.20;47.83;;;;;;;;;;4901594;29;20071;-94
2023/02/10 15:58:48;;;;;;;135.90;65.50;;;;;;;;;;4921429;29;20039;-93
2023/02/10 16:01:15;;;;;;;242.43;124.55;;;;;;;;;;4906125;29;20319;-93
2023/02/10 16:03:41;;;;;;;209.55;114.20;;;;;;;;;;4902600;29;20025;-94
2023/02/10 16:06:08;;;;;;;167.30;90.30;;;;;;;;;;4904641;29;20033;-94
2023/02/10 16:08:35;;;;;;;139.43;72.50;;;;;;;;;;4902751;29;20024;-93
2023/02/10 16:11:02;;;;;;;89.32;42.67;;;;;;;;;;4902585;29;20039;-92
2023/02/10 16:13:28;;;;;;;78.55;38.53;;;;;;;;;;4918621;29;20470;-93
2023/02/10 16:15:54;;;;;;;80.35;37.55;;;;;;;;;;4920436;29;20108;-94
2023/02/10 16:18:21;;;;;;;96.95;36.90;;;;;;;;;;4920688;29;20028;-93
2023/02/10 16:20:47;;;;;;;102.25;35.50;;;;;;;;;;4920316;29;20058;-95
2023/02/10 16:23:15;;;;;;;74.45;33.15;;;;;;;;;;4920931;29;20036;-94
2023/02/10 16:29:03;;;;;;;66.57;30.65;;;;;;;;;;4921549;29;20045;-92
2023/02/10 16:31:29;;;;;;;72.45;35.83;;;;;;;;;;4922161;29;20067;-93
2023/02/10 16:33:55;;;;;;;93.47;45.33;;;;;;;;;;4902638;29;20426;-93
2023/02/10 16:36:21;;;;;;;126.72;64.65;;;;;;;;;;4905055;29;20074;-92
2023/02/10 16:38:47;;;;;;;124.18;60.25;;;;;;;;;;4901525;29;20127;-93
2023/02/10 16:44:30;;;;;;;98.30;50.88;;;;;;;;;;4903112;29;20031;-94
2023/02/10 16:46:57;;;;;;;105.55;56.75;;;;;;;;;;4906648;29;20080;-93
2023/02/10 16:49:23;;;;;;;172.38;78.45;;;;;;;;;;4901283;29;20411;-95
2023/02/10 16:51:50;;;;;;;215.15;87.00;;;;;;;;;;4906204;29;20043;-96
2023/02/10 16:54:16;;;;;;;236.32;92.80;;;;;;;;;;4916935;29;20028;-90
2023/02/10 16:56:43;;;;;;;365.10;130.32;;;;;;;;;;4914419;29;20037;-94
2023/02/10 16:59:13;;;;;;;425.70;149.00;;;;;;;;;;4902339;29;20032;-94
2023/02/10 17:01:39;;;;;;;302.63;116.05;;;;;;;;;;4900748;29;20084;-94
2023/02/10 17:04:05;;;;;;;241.25;101.63;;;;;;;;;;4903551;29;20028;-94
2023/02/10 17:06:32;;;;;;;267.77;103.53;;;;;;;;;;4901654;29;20036;-93
2023/02/10 17:08:58;;;;;;;217.70;88.93;;;;;;;;;;4902798;29;20017;-93
2023/02/10 17:11:25;;;;;;;274.13;120.85;;;;;;;;;;4917557;29;20032;-93
2023/02/10 17:13:51;;;;;;;264.00;115.35;;;;;;;;;;4916463;29;20040;-93
2023/02/10 17:16:26;;;;;;;305.60;134.05;;;;;;;;;;4915263;29;20028;-87
2023/02/10 17:18:52;;;;;;;415.70;198.35;;;;;;;;;;4924392;29;20039;-92
2023/02/10 17:21:18;;;;;;;432.40;201.13;;;;;;;;;;4923351;29;20028;-92
2023/02/10 17:23:44;;;;;;;485.58;234.32;;;;;;;;;;4920498;29;20047;-92
2023/02/10 17:29:15;;;;;;;402.02;207.55;;;;;;;;;;4922497;29;20475;-91
2023/02/10 17:31:41;;;;;;;375.70;180.55;;;;;;;;;;4910706;29;20131;-92
2023/02/10 17:34:07;;;;;;;356.27;172.45;;;;;;;;;;4909301;29;20027;-91
2023/02/10 17:36:34;;;;;;;220.23;106.95;;;;;;;;;;4910602;29;20060;-91
2023/02/10 17:39:01;;;;;;;138.32;72.57;;;;;;;;;;4907445;29;20446;-92
2023/02/10 17:41:28;;;;;;;131.23;66.82;;;;;;;;;;4904555;29;20404;-92
2023/02/10 17:43:58;;;;;;;154.30;80.35;;;;;;;;;;4909403;29;20424;-91
2023/02/10 17:46:25;;;;;;;155.85;73.55;;;;;;;;;;4914478;29;20033;-92
2023/02/10 17:48:53;;;;;;;182.80;80.55;;;;;;;;;;4906049;29;20103;-94
2023/02/10 17:51:21;;;;;;;286.00;109.57;;;;;;;;;;4905478;29;20032;-93
2023/02/10 17:53:48;;;;;;;311.85;115.63;;;;;;;;;;4920865;29;20490;-93
2023/02/10 17:56:14;;;;;;;273.50;109.28;;;;;;;;;;4909287;29;20315;-93
2023/02/10 17:58:40;;;;;;;253.93;103.07;;;;;;;;;;4904574;29;20029;-93
2023/02/10 18:01:06;;;;;;;249.98;101.30;;;;;;;;;;4903584;29;20028;-95
2023/02/10 18:03:33;;;;;;;244.35;99.75;;;;;;;;;;4903658;29;20028;-93
2023/02/10 18:06:00;;;;;;;233.38;95.30;;;;;;;;;;4906451;29;20039;-96
2023/02/10 18:08:26;;;;;;;227.90;94.20;;;;;;;;;;4924095;29;20292;-94
2023/02/10 18:13:56;;;;;;;224.18;95.75;;;;;;;;;;4904963;29;20027;-93
2023/02/10 18:16:22;;;;;;;211.75;87.00;;;;;;;;;;4921564;29;20437;-93
2023/02/10 18:18:48;;;;;;;199.20;85.55;;;;;;;;;;4923395;29;20035;-94
2023/02/10 18:21:19;;;;;;;210.30;88.25;;;;;;;;;;4919446;29;20095;-95
2023/02/10 18:23:45;;;;;;;206.75;86.85;;;;;;;;;;4921556;29;20056;-94
2023/02/10 18:26:12;;;;;;;198.23;86.32;;;;;;;;;;4921915;29;20028;-91
2023/02/10 18:28:38;;;;;;;182.48;83.68;;;;;;;;;;4923047;29;20020;-95
2023/02/10 18:31:04;;;;;;;180.75;81.10;;;;;;;;;;4924467;29;20103;-91
2023/02/10 18:33:31;;;;;;;176.40;80.28;;;;;;;;;;4925221;29;20032;-95
2023/02/10 18:35:57;;;;;;;197.85;89.90;;;;;;;;;;4923075;29;20115;-94
2023/02/10 18:38:24;;;;;;;184.38;85.40;;;;;;;;;;4922212;29;20031;-91
2023/02/10 18:43:53;;;;;;;171.27;81.35;;;;;;;;;;4923349;29;20380;-95
2023/02/10 18:46:20;;;;;;;173.45;76.53;;;;;;;;;;4909154;29;20028;-95
2023/02/10 18:48:46;;;;;;;172.10;80.93;;;;;;;;;;4907533;29;20114;-92
2023/02/10 18:51:16;;;;;;;193.73;87.70;;;;;;;;;;4917641;29;20032;-93
2023/02/10 18:53:42;;;;;;;182.80;85.85;;;;;;;;;;4913240;29;20091;-94
2023/02/10 18:56:46;;;;;;;181.80;75.35;;;;;;;;;;4911991;29;20032;-95
2023/02/10 18:59:12;;;;;;;200.35;81.72;;;;;;;;;;4904469;29;20039;-94
2023/02/10 19:01:38;;;;;;;204.98;83.88;;;;;;;;;;4916208;29;20036;-94
2023/02/10 19:04:04;;;;;;;177.60;82.30;;;;;;;;;;4920375;29;20036;-95
2023/02/10 19:06:31;;;;;;;183.35;83.18;;;;;;;;;;4920950;29;20028;-94
2023/02/10 19:09:01;;;;;;;174.93;78.35;;;;;;;;;;4922366;29;20043;-95
2023/02/10 19:11:28;;;;;;;162.68;74.03;;;;;;;;;;4926636;29;20039;-92
2023/02/10 19:13:54;;;;;;;164.52;77.38;;;;;;;;;;4921894;29;20036;-95
2023/02/10 19:16:20;;;;;;;184.85;89.78;;;;;;;;;;4922330;29;20024;-94
2023/02/10 19:18:46;;;;;;;186.02;98.10;;;;;;;;;;4922531;29;20039;-95
2023/02/10 19:21:13;;;;;;;143.68;78.05;;;;;;;;;;4905243;29;20032;-94
2023/02/10 19:23:40;;;;;;;140.65;72.95;;;;;;;;;;4905182;29;20043;-89
2023/02/10 19:35:17;;;;;;;112.45;53.45;;;;;;;;;;4902626;29;20027;-92
2023/02/10 19:37:43;;;;;;;114.22;54.40;;;;;;;;;;4904503;29;20060;-91
2023/02/10 19:40:09;;;;;;;125.97;56.35;;;;;;;;;;4908849;29;20032;-90
2023/02/10 19:42:35;;;;;;;119.72;54.85;;;;;;;;;;4888282;29;20060;-91
2023/02/10 19:45:02;;;;;;;119.40;54.10;;;;;;;;;;4913459;29;20152;-91
2023/02/10 19:47:28;;;;;;;110.85;50.72;;;;;;;;;;4917596;29;20364;-94
2023/02/10 19:49:56;;;;;;;104.53;48.95;;;;;;;;;;4914366;29;20127;-89
2023/02/10 19:52:23;;;;;;;149.32;66.18;;;;;;;;;;4912865;29;20052;-89
2023/02/10 19:54:49;;;;;;;213.75;92.90;;;;;;;;;;4920129;29;20407;-88
2023/02/10 20:00:19;;;;;;;173.23;80.63;;;;;;;;;;4917647;29;20047;-88
2023/02/10 20:02:45;;;;;;;159.70;75.10;;;;;;;;;;4902814;29;20028;-88
2023/02/10 20:05:11;;;;;;;136.35;66.43;;;;;;;;;;4901691;29;20031;-89
2023/02/10 20:07:37;;;;;;;154.73;79.30;;;;;;;;;;4902607;29;20083;-88
2023/02/10 20:10:04;;;;;;;170.65;86.15;;;;;;;;;;4902768;29;20024;-87
2023/02/10 20:13:07;;;;;;;156.25;82.25;;;;;;;;;;4902440;29;20032;-90
2023/02/10 20:15:34;;;;;;;123.32;65.35;;;;;;;;;;4902723;29;20076;-92
2023/02/10 20:18:00;;;;;;;94.10;50.90;;;;;;;;;;4902585;29;20032;-92
2023/02/10 20:20:26;;;;;;;92.28;47.67;;;;;;;;;;4900453;29;20127;-93
2023/02/10 20:22:52;;;;;;;88.40;48.65;;;;;;;;;;4901313;29;20032;-91
2023/02/10 20:25:19;;;;;;;123.82;60.72;;;;;;;;;;4902134;29;20108;-92
2023/02/10 20:27:45;;;;;;;207.00;86.65;;;;;;;;;;4900530;29;20133;-92
2023/02/10 20:30:11;;;;;;;158.10;78.32;;;;;;;;;;4901343;29;20024;-92
2023/02/10 20:32:40;;;;;;;157.02;78.63;;;;;;;;;;4900102;29;20112;-92
2023/02/10 20:35:06;;;;;;;193.40;96.85;;;;;;;;;;4901499;29;20494;-94
2023/02/10 20:37:32;;;;;;;463.73;239.02;;;;;;;;;;4902002;29;20061;-91
2023/02/10 20:39:58;;;;;;;534.22;308.65;;;;;;;;;;4902235;29;20028;-92
2023/02/10 20:42:24;;;;;;;478.80;282.27;;;;;;;;;;4901017;29;20025;-91
2023/02/10 20:44:51;;;;;;;240.93;117.97;;;;;;;;;;4902511;29;20017;-92
2023/02/10 20:47:17;;;;;;;254.25;101.03;;;;;;;;;;4905354;29;20353;-91
2023/02/10 20:49:43;;;;;;;285.00;109.78;;;;;;;;;;4905140;29;20029;-92
2023/02/10 20:52:09;;;;;;;291.55;113.85;;;;;;;;;;4906317;29;20034;-92
2023/02/10 20:54:36;;;;;;;306.27;124.95;;;;;;;;;;4905029;29;20031;-92
2023/02/10 20:57:03;;;;;;;268.85;109.43;;;;;;;;;;4904992;29;20035;-92
2023/02/10 20:59:29;;;;;;;253.20;101.25;;;;;;;;;;4905861;29;20033;-94
2023/02/10 21:01:55;;;;;;;246.15;96.90;;;;;;;;;;4905808;29;20028;-92
2023/02/10 21:04:21;;;;;;;230.68;94.88;;;;;;;;;;4904820;29;20028;-91
2023/02/10 21:06:48;;;;;;;220.40;94.40;;;;;;;;;;4904822;29;20101;-91
2023/02/10 21:09:14;;;;;;;207.88;90.03;;;;;;;;;;4905905;29;20032;-92
2023/02/10 21:11:40;;;;;;;188.45;84.90;;;;;;;;;;4904867;29;20153;-92
2023/02/10 21:14:07;;;;;;;171.88;76.07;;;;;;;;;;4904584;29;20045;-91
2023/02/10 21:16:34;;;;;;;149.63;68.68;;;;;;;;;;4904188;29;20462;-91
2023/02/10 21:19:01;;;;;;;140.25;66.72;;;;;;;;;;4904633;29;20032;-93
2023/02/10 21:21:27;;;;;;;227.23;95.00;;;;;;;;;;4905370;29;20024;-91
2023/02/10 21:23:53;;;;;;;496.50;170.35;;;;;;;;;;4904570;29;20036;-92
2023/02/10 21:32:53;;;;;;;212.32;96.53;;;;;;;;;;4908986;29;20039;-92
2023/02/10 21:35:19;;;;;;;196.48;90.40;;;;;;;;;;4923218;29;20028;-92
2023/02/10 21:37:45;;;;;;;234.68;104.65;;;;;;;;;;4923795;29;20044;-92
2023/02/10 21:40:11;;;;;;;259.02;114.15;;;;;;;;;;4923034;29;20024;-92
2023/02/10 21:45:47;;;;;;;132.15;57.72;;;;;;;;;;4924623;29;20087;-92
2023/02/10 21:48:14;;;;;;;137.48;60.30;;;;;;;;;;4924276;29;20028;-92
